Leroy, New York
Current Conditions -  °F | °C
As of 5:54 PM on Saturday 25 Oct 2014 (Local Time) from KROC Reporting Station
Scattered Clouds Scattered Clouds  
Wind Chill: 59°   Ceiling: Unl
Heat Index: 59°   Visibility: 8mi
Dew Point: 49°   Wind: 17mph
Humidity: 69%   Direction: 290°WNW
Pressure: 29.6"   Gusts: 29mph
Location:  42.9765°N, 77.9749°W
Report Text: KROC 252154Z 29015G25KT 8SM FEW027 SCT075 15/09 A2960 RMK AO2 PK WND 29027/2107 SLP027 T01500094
Loading
Personal Weather Stations






























Interactive Weather Map
Tropical Storm Tracking
New forecast layout! Learn more

10-Day Weather Forecast

Advertisements
Track Severe Weather on mobile